Coker Creek, TN (37314)

2:21 PM EDT on September 30, 2014 (GMT -0400)
Notchey Creek - Low | Change Station
CLOSE
Current Station
Personal Weather Station
Location: Madisonville, TN
Elevation: 1007 ft
Nearby Weather Stations

Elev 1007 ft 35.47 °N, 84.37 °W | Updated 1 minute ago

Clear
Clear
80.4 °F
Feels Like 82 °F
N
0.0
Wind Variable Wind from North
Gusts 0.0 mph

Today
High -- | Low -- °F
--% Chance of Precip.
Yesterday
High -- | Low -- °F
Precip. -- in
7:31 AM 7:22 PM
Waxing Crescent, 39% visible
Pressure 29.96 in
Visibility 10.0 miles
Clouds Clear
Heat Index 82 °F
Dew Point 65 °F
Humidity 60%
Rainfall 0.00 in
Snow Depth Not available.
UV 8 out of 12
Pollen 4.90 out of 12
Air Quality Not available.
Flu Activity Not available.
METAR KMMI 301815Z AUTO VRB03KT 10SM CLR 24/17 A2996 RMK

More Conditions Fewer Conditions

Pressure 29.96 in
Visibility 10.0 miles
Clouds Clear
Heat Index 82 °F
Dew Point 65 °F
Humidity 60%
Rainfall 0.00 in
Snow Depth Not available.
UV 8 out of 12
Pollen 4.90 out of 12
Air Quality Not available.
Flu Activity Not available.
METAR KMMI 301815Z AUTO VRB03KT 10SM CLR 24/17 A2996 RMK

More Conditions Fewer Conditions

10-Day Weather Forecast

Almanac

Astronomy

Sep. 30, 2014 Rise Set
Actual Time 7:31 AM EDT 7:22 PM EDT
Civil Twilight 7:06 AM EDT 7:47 PM EDT
Nautical Twilight 6:36 AM EDT 8:17 PM EDT
Astronomical Twilight 6:06 AM EDT 8:47 PM EDT
Moon 1:29 PM EDT No Moon Set
Length of Visible Light 12h 41m
Length of Day
11h 51m
Tomorrow will be 2m 13s shorter.
Waxing Crescent, 39% of the Moon is Illuminated
Today
Waxing Crescent
Oct 1
First Quarter
Oct 8
Full
Oct 15
Last Quarter
Oct 23
New

Today's Extremes

State Highs State Lows

Community

WunderPhotos

Upload Photos

1,757,711 photos uploaded!

Nearby

Snow Depth

Station Depth Elevation
No new snow has been reported.

Earthquake Activity

City Distance Mag. Time & Date
No recent earthquake activity has been reported nearby.
Minimum magnitude displayed is 2.5.

Coastal Water Temperatures

Place Temperature
No Stations Reporting

Nearby Weather Stations